Time;durP1;ratioP1;P1;durP2;ratioP2;P2;SDS_P1;SDS_P2;PMS_P1;PMS_P2;Temp;Humidity;BMP_temperature;BMP_pressure;BME280_temperature;BME280_humidity;BME280_pressure;Samples;Min_cycle;Max_cycle;Signal;HPM_P1;HPM_P2
2023/03/25 00:02:06;;;;;;;26.23;7.90;;;9.80;99.90;;;;;;5069949;28;20466;-60
2023/03/25 00:04:34;;;;;;;27.63;9.03;;;9.90;99.90;;;;;;5072822;28;20482;-60
2023/03/25 00:07:01;;;;;;;26.50;8.63;;;9.90;99.90;;;;;;5046012;28;20980;-60
2023/03/25 00:09:28;;;;;;;29.20;8.60;;;10.00;99.90;;;;;;5064250;28;20559;-60
2023/03/25 00:11:55;;;;;;;36.57;10.70;;;;;;;;;;5062607;28;20479;-60
2023/03/25 00:14:23;;;;;;;28.33;8.37;;;10.00;99.90;;;;;;5046810;28;20475;-60
2023/03/25 00:16:51;;;;;;;39.47;12.00;;;9.90;99.90;;;;;;5055553;28;20483;-61
2023/03/25 00:19:20;;;;;;;16.67;5.17;;;10.00;99.90;;;;;;5059005;28;20482;-60
2023/03/25 00:21:49;;;;;;;34.13;11.17;;;10.00;99.90;;;;;;5050592;28;20486;-60
2023/03/25 00:24:16;;;;;;;22.93;7.27;;;10.00;99.90;;;;;;5054296;28;20575;-60
2023/03/25 00:26:43;;;;;;;33.80;8.00;;;12.20;99.90;;;;;;5068508;28;20490;-60
2023/03/25 00:29:10;;;;;;;22.53;5.50;;;9.90;99.90;;;;;;5057892;28;20475;-61
2023/03/25 00:31:37;;;;;;;23.73;8.23;;;10.00;99.90;;;;;;5042389;28;20507;-60
2023/03/25 00:34:04;;;;;;;23.40;5.43;;;10.00;99.90;;;;;;5060688;28;20490;-60
2023/03/25 00:36:32;;;;;;;23.40;7.20;;;9.80;99.90;;;;;;5061426;28;20479;-61
2023/03/25 00:38:58;;;;;;;32.27;8.60;;;9.70;99.90;;;;;;5061493;28;20482;-61
2023/03/25 00:41:26;;;;;;;28.50;7.40;;;9.20;99.90;;;;;;5060509;28;20813;-60
2023/03/25 00:43:54;;;;;;;44.10;9.90;;;9.00;99.90;;;;;;5065816;28;20570;-60
2023/03/25 00:46:22;;;;;;;32.07;7.30;;;;;;;;;;5063629;28;20659;-60
2023/03/25 00:48:49;;;;;;;54.83;9.77;;;8.70;99.90;;;;;;5042419;28;21177;-60
2023/03/25 00:51:18;;;;;;;31.43;7.90;;;;;;;;;;5061406;28;20490;-61
2023/03/25 00:53:46;;;;;;;61.90;12.37;;;8.60;99.90;;;;;;5068924;28;20509;-60
2023/03/25 00:56:13;;;;;;;25.90;5.37;;;8.40;99.90;;;;;;5048868;28;20565;-60
2023/03/25 00:58:41;;;;;;;48.07;9.57;;;;;;;;;;5032779;28;20478;-60
2023/03/25 01:01:11;;;;;;;42.73;8.53;;;8.50;99.90;;;;;;5067413;28;20474;-61
2023/03/25 01:03:39;;;;;;;35.27;6.77;;;;;;;;;;5045575;28;20530;-60
2023/03/25 01:06:10;;;;;;;47.90;9.27;;;8.30;99.90;;;;;;5063048;28;21069;-60
2023/03/25 01:08:37;;;;;;;45.30;8.80;;;8.20;99.90;;;;;;5066502;28;20492;-60
2023/03/25 01:11:08;;;;;;;36.93;7.03;;;8.20;99.90;;;;;;5066042;28;20479;-60
2023/03/25 01:13:35;;;;;;;37.20;7.27;;;;;;;;;;5066501;28;20555;-60
2023/03/25 01:16:06;;;;;;;43.97;8.23;;;8.30;99.90;;;;;;5047479;28;20497;-60
2023/03/25 01:18:36;;;;;;;35.03;6.93;;;;;;;;;;5061425;28;20835;-60
2023/03/25 01:21:03;;;;;;;44.93;8.37;;;8.30;99.90;;;;;;5041679;28;20486;-60
2023/03/25 01:23:30;;;;;;;52.03;11.33;;;;;;;;;;5031421;28;20845;-60
2023/03/25 01:25:57;;;;;;;57.53;10.50;;;;;;;;;;5057543;28;21007;-60
2023/03/25 01:28:26;;;;;;;34.00;6.80;;;8.30;99.90;;;;;;5069465;28;20718;-59
2023/03/25 01:31:00;;;;;;;43.40;10.27;;;4.50;99.90;;;;;;5069105;28;20655;-60
2023/03/25 01:33:27;;;;;;;36.90;7.90;;;8.40;99.90;;;;;;5059641;28;20469;-60
2023/03/25 01:35:53;;;;;;;43.30;9.07;;;8.30;99.90;;;;;;5070364;28;20545;-60
2023/03/25 01:38:21;;;;;;;43.30;9.47;;;;;;;;;;5056979;28;20536;-60
2023/03/25 01:40:48;;;;;;;58.87;12.40;;;;;;;;;;5062439;28;20482;-60
2023/03/25 01:43:15;;;;;;;25.60;7.97;;;;;;;;;;5067216;28;20486;-60
2023/03/25 01:45:44;;;;;;;34.60;7.70;;;8.50;99.90;;;;;;5069940;28;20485;-60
2023/03/25 01:48:16;;;;;;;33.03;6.53;;;8.40;99.90;;;;;;5066440;28;20490;-60
2023/03/25 01:50:49;;;;;;;35.20;7.47;;;8.40;99.90;;;;;;5067929;28;20580;-61
2023/03/25 01:53:16;;;;;;;23.43;5.40;;;8.40;99.90;;;;;;5059541;28;20483;-60
2023/03/25 01:55:44;;;;;;;48.23;8.87;;;8.40;99.90;;;;;;5069261;28;20484;-60
2023/03/25 01:58:15;;;;;;;34.60;5.73;;;8.30;99.90;;;;;;5045330;28;20501;-60
2023/03/25 02:00:46;;;;;;;57.30;10.90;;;8.20;99.90;;;;;;5064204;28;20666;-61
2023/03/25 02:03:15;;;;;;;39.70;8.77;;;;;;;;;;5073527;28;20746;-61
2023/03/25 02:05:48;;;;;;;48.90;10.77;;;8.20;99.90;;;;;;5069727;28;20828;-60
2023/03/25 02:08:15;;;;;;;21.63;5.40;;;8.30;99.90;;;;;;5054945;28;20495;-60
2023/03/25 02:10:45;;;;;;;37.40;6.43;;;8.30;99.90;;;;;;5070223;28;20623;-60
2023/03/25 02:13:12;;;;;;;31.77;6.83;;;8.20;99.90;;;;;;5061270;28;20839;-60
2023/03/25 02:15:58;;;;;;;36.63;7.07;;;8.30;99.90;;;;;;5066210;28;20490;-60
2023/03/25 02:18:35;;;;;;;43.60;8.80;;;8.40;99.90;;;;;;5074596;28;20587;-60
2023/03/25 02:21:18;;;;;;;32.63;7.40;;;;;;;;;;5053830;28;20481;-60
2023/03/25 02:23:59;;;;;;;53.10;10.37;;;;;;;;;;5062067;28;20929;-60
2023/03/25 02:26:58;;;;;;;41.87;8.23;;;8.40;99.90;;;;;;5068018;28;20474;-60
2023/03/25 02:29:41;;;;;;;42.37;9.63;;;8.40;99.90;;;;;;5056090;28;21248;-60
2023/03/25 02:32:26;;;;;;;34.27;7.80;;;8.50;99.90;;;;;;5076344;28;20752;-60
2023/03/25 02:35:04;;;;;;;60.43;10.60;;;;;;;;;;5058907;28;20473;-60
2023/03/25 02:38:06;;;;;;;47.03;10.23;;;8.40;99.90;;;;;;5076249;28;20945;-61
2023/03/25 02:40:38;;;;;;;35.83;8.63;;;8.40;99.90;;;;;;5069948;28;20482;-60
2023/03/25 02:43:11;;;;;;;48.90;9.97;;;8.50;99.90;;;;;;5070795;28;20985;-60
2023/03/25 02:45:43;;;;;;;27.70;6.93;;;11.10;99.90;;;;;;5061644;28;20481;-60
2023/03/25 02:48:14;;;;;;;29.87;4.83;;;8.60;99.90;;;;;;5079063;28;20486;-60
2023/03/25 02:50:44;;;;;;;50.57;9.77;;;8.60;99.90;;;;;;5067415;28;20483;-60
2023/03/25 02:53:19;;;;;;;35.47;6.67;;;8.60;99.90;;;;;;5065326;28;20520;-60
2023/03/25 02:55:48;;;;;;;38.37;8.10;;;8.80;99.90;;;;;;5080735;28;20482;-60
2023/03/25 02:58:20;;;;;;;27.00;6.80;;;8.80;99.90;;;;;;5067903;28;20913;-60
2023/03/25 03:00:48;;;;;;;82.47;14.60;;;6.90;99.90;;;;;;5067700;28;20486;-61
2023/03/25 03:03:15;;;;;;;34.37;7.67;;;8.80;99.90;;;;;;5065330;28;20486;-61
2023/03/25 03:05:43;;;;;;;31.33;6.50;;;;;;;;;;5070203;28;20547;-60
2023/03/25 03:08:26;;;;;;;20.27;6.10;;;8.90;99.90;;;;;;5069772;28;20649;-60
2023/03/25 03:11:02;;;;;;;47.93;11.33;;;8.90;99.90;;;;;;5060357;28;20485;-60
2023/03/25 03:13:41;;;;;;;41.50;8.37;;;8.90;99.90;;;;;;5076338;28;20481;-60
2023/03/25 03:16:18;;;;;;;19.23;5.20;;;9.00;99.90;;;;;;5067993;28;20485;-60
2023/03/25 03:18:50;;;;;;;52.00;11.67;;;;;;;;;;5058825;27;20520;-60
2023/03/25 03:21:22;;;;;;;56.27;10.23;;;8.80;99.90;;;;;;5079672;28;20479;-60
2023/03/25 03:23:57;;;;;;;88.80;13.33;;;8.90;99.90;;;;;;5068892;28;20473;-60
2023/03/25 03:26:36;;;;;;;59.93;10.10;;;8.90;99.90;;;;;;5068995;28;20481;-60
2023/03/25 03:29:10;;;;;;;65.70;8.87;;;9.00;99.90;;;;;;5066315;28;20471;-60
2023/03/25 03:31:41;;;;;;;25.83;5.80;;;8.90;99.90;;;;;;5057539;28;20558;-60
2023/03/25 03:34:14;;;;;;;25.63;6.90;;;8.90;99.90;;;;;;5082900;28;20471;-60
2023/03/25 03:36:44;;;;;;;29.50;8.37;;;;;;;;;;5051299;28;20908;-60
2023/03/25 03:39:18;;;;;;;23.90;5.50;;;;;;;;;;5065478;28;20478;-60
2023/03/25 03:41:49;;;;;;;52.10;12.00;;;9.00;99.90;;;;;;5076019;27;20497;-60
2023/03/25 03:44:20;;;;;;;27.93;6.53;;;9.00;99.90;;;;;;5069227;28;20483;-60
2023/03/25 03:47:20;;;;;;;52.90;9.30;;;8.90;99.90;;;;;;5066837;28;21354;-60
2023/03/25 03:49:52;;;;;;;38.13;10.97;;;8.80;99.90;;;;;;5068379;28;20476;-60
2023/03/25 03:52:25;;;;;;;28.60;7.40;;;8.90;99.90;;;;;;5058048;28;20466;-60
2023/03/25 03:54:57;;;;;;;60.57;13.30;;;8.80;99.90;;;;;;5071030;28;20463;-60
2023/03/25 03:57:28;;;;;;;41.97;10.50;;;8.50;99.90;;;;;;5059933;28;20739;-60
2023/03/25 04:00:03;;;;;;;51.63;12.33;;;8.60;99.90;;;;;;5052640;28;20780;-60
2023/03/25 04:02:38;;;;;;;45.47;10.03;;;8.80;99.90;;;;;;5064751;28;20927;-60
2023/03/25 04:05:06;;;;;;;21.97;5.63;;;8.70;99.90;;;;;;5063577;28;20477;-60
2023/03/25 04:07:39;;;;;;;28.20;6.67;;;8.80;99.90;;;;;;5077546;28;20956;-60
2023/03/25 04:10:13;;;;;;;47.47;9.67;;;8.80;99.90;;;;;;5077511;28;20479;-60
2023/03/25 04:12:44;;;;;;;37.70;6.80;;;8.80;99.90;;;;;;5053616;28;20844;-60
2023/03/25 04:15:12;;;;;;;26.03;4.93;;;;;;;;;;5083186;28;20946;-60
2023/03/25 04:17:39;;;;;;;36.00;7.40;;;9.00;99.90;;;;;;5039468;28;20596;-60
2023/03/25 04:20:10;;;;;;;24.43;6.10;;;8.90;99.90;;;;;;5070440;28;20551;-60
2023/03/25 04:22:37;;;;;;;23.23;6.17;;;8.80;99.90;;;;;;5071813;28;20470;-60
2023/03/25 04:25:06;;;;;;;29.73;5.67;;;8.90;99.90;;;;;;5080724;28;20561;-60
2023/03/25 04:27:36;;;;;;;37.53;6.90;;;8.90;99.90;;;;;;5073021;28;20987;-60
2023/03/25 04:30:04;;;;;;;31.43;7.33;;;;;;;;;;5073294;28;20488;-60
2023/03/25 04:32:31;;;;;;;43.60;7.90;;;8.90;99.90;;;;;;5078146;28;20555;-60
2023/03/25 04:34:58;;;;;;;46.10;9.40;;;9.00;99.90;;;;;;5073768;28;20514;-60
2023/03/25 04:37:25;;;;;;;41.00;8.73;;;9.00;99.90;;;;;;5068396;28;20481;-61
2023/03/25 04:39:54;;;;;;;42.57;9.00;;;8.90;99.90;;;;;;5069251;28;20478;-60
2023/03/25 04:42:24;;;;;;;38.30;7.80;;;8.90;99.90;;;;;;5060586;28;20545;-60
2023/03/25 04:44:51;;;;;;;44.83;9.33;;;8.90;99.90;;;;;;5075593;27;20679;-60
2023/03/25 04:47:20;;;;;;;24.50;5.37;;;8.90;99.90;;;;;;5066479;28;20897;-60
2023/03/25 04:49:47;;;;;;;61.13;12.17;;;8.80;99.90;;;;;;5079865;28;20864;-60
2023/03/25 04:52:15;;;;;;;37.90;6.90;;;8.80;99.90;;;;;;5079066;28;20996;-60
2023/03/25 04:54:43;;;;;;;47.47;11.33;;;8.80;99.90;;;;;;5078547;28;20500;-60
2023/03/25 04:57:10;;;;;;;29.40;4.97;;;8.80;99.90;;;;;;5057052;28;20470;-60
2023/03/25 04:59:38;;;;;;;39.67;8.23;;;8.90;99.90;;;;;;5054761;28;20993;-60
2023/03/25 05:02:06;;;;;;;41.40;6.90;;;8.90;99.90;;;;;;5080281;28;20993;-60
2023/03/25 05:04:34;;;;;;;46.93;9.43;;;;;;;;;;5082721;28;20482;-60
2023/03/25 05:07:01;;;;;;;33.87;6.67;;;;;;;;;;5065287;28;20474;-59
2023/03/25 05:09:29;;;;;;;45.47;9.47;;;;;;;;;;5068426;28;20477;-60
2023/03/25 05:11:56;;;;;;;41.47;10.13;;;;;;;;;;5069260;28;21225;-60
2023/03/25 05:14:23;;;;;;;32.73;7.03;;;;;;;;;;5070224;28;20478;-60
2023/03/25 05:16:51;;;;;;;63.23;13.33;;;9.00;99.90;;;;;;5071343;28;20511;-61
2023/03/25 05:19:19;;;;;;;31.93;5.90;;;;;;;;;;5084086;28;20478;-60
2023/03/25 05:21:47;;;;;;;42.30;9.27;;;;;;;;;;5072174;28;20475;-60
2023/03/25 05:24:14;;;;;;;27.63;5.93;;;9.10;99.90;;;;;;5049692;28;20560;-60
2023/03/25 05:26:41;;;;;;;42.63;7.20;;;;;;;;;;5056489;28;20494;-60
2023/03/25 05:29:12;;;;;;;32.07;6.77;;;9.10;99.90;;;;;;5063683;28;20578;-59
2023/03/25 05:31:39;;;;;;;39.70;8.93;;;9.00;99.90;;;;;;5061076;28;20482;-60
2023/03/25 05:34:08;;;;;;;40.93;8.50;;;9.00;99.90;;;;;;5059453;28;20490;-60
2023/03/25 05:36:35;;;;;;;38.87;7.50;;;9.00;99.90;;;;;;5043650;28;20527;-60
2023/03/25 05:39:03;;;;;;;33.40;6.13;;;8.90;99.90;;;;;;5074328;28;20490;-60
2023/03/25 05:41:32;;;;;;;40.53;8.87;;;9.00;99.90;;;;;;5068070;28;20492;-60
2023/03/25 05:43:59;;;;;;;41.60;9.13;;;;;;;;;;5076121;28;20513;-59
2023/03/25 05:46:28;;;;;;;47.97;9.10;;;;;;;;;;5079002;27;20466;-60
2023/03/25 05:48:56;;;;;;;59.43;14.60;;;;;;;;;;5073584;28;20489;-60
2023/03/25 05:51:26;;;;;;;43.43;8.20;;;9.20;99.90;;;;;;5071581;28;21177;-61
2023/03/25 05:53:53;;;;;;;44.07;9.97;;;9.10;99.90;;;;;;5072015;28;20473;-60
2023/03/25 05:56:21;;;;;;;32.17;4.67;;;;;;;;;;5062786;28;20581;-60
2023/03/25 05:58:49;;;;;;;57.80;10.83;;;9.30;99.90;;;;;;5074854;28;20894;-60
2023/03/25 06:01:17;;;;;;;49.30;8.07;;;;;;;;;;5078802;28;20512;-60
2023/03/25 06:03:45;;;;;;;30.87;8.13;;;;;;;;;;5070907;28;20485;-60
2023/03/25 06:06:13;;;;;;;29.40;5.90;;;;;;;;;;5082247;28;20508;-60
2023/03/25 06:08:42;;;;;;;28.40;6.17;;;;;;;;;;5071425;28;20477;-60
2023/03/25 06:11:12;;;;;;;32.23;6.23;;;9.20;99.90;;;;;;5067444;28;20943;-61
2023/03/25 06:13:39;;;;;;;52.23;8.03;;;9.00;99.90;;;;;;5073455;28;20470;-60
2023/03/25 06:16:07;;;;;;;26.23;6.90;;;9.10;99.90;;;;;;5061387;28;20482;-60
2023/03/25 06:18:36;;;;;;;38.53;9.07;;;;;;;;;;5069690;28;20594;-60
2023/03/25 06:21:04;;;;;;;51.90;10.37;;;;;;;;;;5079468;28;20651;-60
2023/03/25 06:23:34;;;;;;;30.50;7.67;;;9.20;99.90;;;;;;5078149;28;20493;-60
2023/03/25 06:26:03;;;;;;;34.13;7.60;;;9.30;99.90;;;;;;5078238;28;20507;-60
2023/03/25 06:28:29;;;;;;;36.47;8.73;;;9.40;99.90;;;;;;5057589;28;21124;-60
2023/03/25 06:30:57;;;;;;;46.20;10.00;;;9.60;99.90;;;;;;5092578;28;21020;-60
2023/03/25 06:33:24;;;;;;;32.50;6.40;;;9.80;99.90;;;;;;5059958;28;20580;-60
2023/03/25 06:35:52;;;;;;;68.60;11.73;;;;;;;;;;5074820;28;20477;-60
2023/03/25 06:38:20;;;;;;;25.00;6.77;;;9.80;99.90;;;;;;5059298;28;20889;-61
2023/03/25 06:40:47;;;;;;;57.73;12.33;;;9.90;99.90;;;;;;5073349;28;20880;-60
2023/03/25 06:43:15;;;;;;;22.50;4.97;;;9.80;99.90;;;;;;5065823;28;20581;-60
2023/03/25 06:45:42;;;;;;;39.07;10.20;;;9.70;99.90;;;;;;5073252;28;20722;-61
2023/03/25 06:48:09;;;;;;;19.50;4.80;;;9.70;99.90;;;;;;5071528;28;21202;-60
2023/03/25 06:50:35;;;;;;;36.20;8.27;;;9.70;99.90;;;;;;5076885;28;20492;-60
2023/03/25 06:53:02;;;;;;;30.17;7.30;;;9.70;99.90;;;;;;5076579;28;20478;-61
2023/03/25 06:55:29;;;;;;;32.07;6.67;;;;;;;;;;5069418;28;20569;-60
2023/03/25 06:57:56;;;;;;;40.47;9.57;;;9.60;99.90;;;;;;5049974;28;20518;-60
2023/03/25 07:00:25;;;;;;;31.80;6.73;;;9.80;99.90;;;;;;5062575;28;20482;-60
2023/03/25 07:02:52;;;;;;;72.63;12.97;;;;;;;;;;5074116;28;20489;-60
2023/03/25 07:05:19;;;;;;;26.87;5.40;;;10.40;99.90;;;;;;5068742;28;20677;-61
2023/03/25 07:07:46;;;;;;;48.30;11.43;;;11.10;99.90;;;;;;5092664;28;20908;-61
2023/03/25 07:10:13;;;;;;;26.63;5.70;;;;;;;;;;5067902;28;20486;-61
2023/03/25 07:12:40;;;;;;;38.37;8.40;;;;;;;;;;5064271;28;20888;-60
2023/03/25 07:15:08;;;;;;;43.97;7.03;;;;;;;;;;5060077;28;20474;-61
2023/03/25 07:17:36;;;;;;;32.83;7.70;;;11.20;99.90;;;;;;5074900;28;21019;-61
2023/03/25 07:20:03;;;;;;;29.63;6.43;;;;;;;;;;5057631;28;20539;-61
2023/03/25 07:22:30;;;;;;;30.17;6.67;;;;;;;;;;5055662;28;20494;-60
2023/03/25 07:24:57;;;;;;;43.93;10.40;;;10.90;99.90;;;;;;5067134;28;20478;-59
2023/03/25 07:27:24;;;;;;;19.80;4.63;;;11.50;99.90;;;;;;5070740;28;20482;-60
2023/03/25 07:29:52;;;;;;;41.60;9.23;;;;;;;;;;5092317;28;20572;-61
2023/03/25 07:32:19;;;;;;;31.77;8.63;;;;;;;;;;5076287;28;20478;-61
2023/03/25 07:34:47;;;;;;;28.37;8.13;;;12.80;98.80;;;;;;5063943;28;20482;-61
2023/03/25 07:37:14;;;;;;;20.70;3.17;;;;;;;;;;5067220;28;20538;-61
2023/03/25 07:39:41;;;;;;;17.70;6.30;;;13.00;98.80;;;;;;5083518;27;20890;-61
2023/03/25 07:42:07;;;;;;;19.80;5.83;;;13.00;98.40;;;;;;5076647;28;20485;-60
2023/03/25 07:44:34;;;;;;;25.00;5.77;;;12.90;98.20;;;;;;5091480;28;20911;-60
2023/03/25 07:47:01;;;;;;;24.03;5.63;;;12.20;98.50;;;;;;5078862;28;20488;-61
2023/03/25 07:49:28;;;;;;;20.73;5.23;;;11.70;98.50;;;;;;5086103;28;20479;-60
2023/03/25 07:51:56;;;;;;;45.10;9.80;;;11.30;99.60;;;;;;5060136;28;20475;-61
2023/03/25 07:54:23;;;;;;;26.90;6.97;;;11.20;99.90;;;;;;5086768;28;20578;-61
2023/03/25 07:56:51;;;;;;;33.73;9.80;;;;;;;;;;5060694;28;20484;-60
2023/03/25 07:59:18;;;;;;;17.93;4.70;;;;;;;;;;5056736;28;20482;-61
2023/03/25 08:01:45;;;;;;;34.70;9.63;;;10.80;99.90;;;;;;5064995;28;21002;-61
2023/03/25 08:04:12;;;;;;;24.37;7.13;;;10.90;99.90;;;;;;5064432;28;20974;-61
2023/03/25 08:06:39;;;;;;;25.50;5.77;;;10.90;99.90;;;;;;5083349;28;20550;-60
2023/03/25 08:09:07;;;;;;;27.80;6.33;;;10.80;99.90;;;;;;5066355;28;20486;-60
2023/03/25 08:11:34;;;;;;;16.40;6.33;;;10.60;99.90;;;;;;5069589;28;20479;-60
2023/03/25 08:14:01;;;;;;;36.80;6.60;;;;;;;;;;5081632;28;21071;-61
2023/03/25 08:16:28;;;;;;;20.13;6.40;;;10.90;99.90;;;;;;5062328;28;20489;-60
2023/03/25 08:18:54;;;;;;;20.73;7.73;;;10.90;99.90;;;;;;5070606;28;20485;-60
2023/03/25 08:21:24;;;;;;;16.47;4.13;;;10.80;99.90;;;;;;5059509;28;20486;-60
2023/03/25 08:23:51;;;;;;;38.47;10.20;;;;;;;;;;5066774;28;20521;-60
2023/03/25 08:26:19;;;;;;;12.87;3.47;;;;;;;;;;5071684;28;20535;-61
2023/03/25 08:28:47;;;;;;;27.70;8.50;;;;;;;;;;5058179;28;20864;-60
2023/03/25 08:31:14;;;;;;;24.60;5.87;;;;;;;;;;5085025;28;20546;-61
2023/03/25 08:33:41;;;;;;;25.00;7.27;;;11.20;99.90;;;;;;5069859;28;20489;-60
2023/03/25 08:36:12;;;;;;;18.17;3.30;;;;;;;;;;5064587;28;21101;-60
2023/03/25 08:38:40;;;;;;;21.47;5.80;;;10.90;99.90;;;;;;5076136;28;21084;-61
2023/03/25 08:41:07;;;;;;;16.63;5.30;;;11.00;99.90;;;;;;5076342;28;20477;-60
2023/03/25 08:43:35;;;;;;;24.00;6.00;;;11.30;99.90;;;;;;5082534;28;20811;-61
2023/03/25 08:46:02;;;;;;;18.90;4.73;;;11.40;99.90;;;;;;5058481;28;20495;-60
2023/03/25 08:48:29;;;;;;;18.27;7.20;;;11.80;99.90;;;;;;5041472;28;20532;-60
2023/03/25 08:50:57;;;;;;;28.03;7.33;;;;;;;;;;5063713;28;20486;-60
2023/03/25 08:53:24;;;;;;;19.23;4.27;;;;;;;;;;5061663;28;20584;-61
2023/03/25 08:55:52;;;;;;;20.07;7.80;;;;;;;;;;5080365;28;20557;-61
2023/03/25 08:58:19;;;;;;;17.60;4.83;;;;;;;;;;5071037;28;20489;-61
2023/03/25 09:00:48;;;;;;;36.70;9.93;;;12.10;99.90;;;;;;5048239;28;20583;-61
2023/03/25 09:03:15;;;;;;;13.80;3.53;;;12.00;99.90;;;;;;5053602;28;20482;-60
2023/03/25 09:05:42;;;;;;;33.87;9.60;;;;;;;;;;5068023;28;20486;-60
2023/03/25 09:08:09;;;;;;;25.73;6.10;;;;;;;;;;5048128;28;21033;-60
2023/03/25 09:10:36;;;;;;;20.77;5.53;;;;;;;;;;5080133;28;20494;-60
2023/03/25 09:13:03;;;;;;;25.17;6.00;;;;;;;;;;5074466;28;20481;-60
2023/03/25 09:15:30;;;;;;;27.30;7.43;;;11.70;99.90;;;;;;5065849;28;20473;-61
2023/03/25 09:17:59;;;;;;;24.60;6.97;;;;;;;;;;5066529;28;20482;-60
2023/03/25 09:20:26;;;;;;;29.03;6.33;;;;;;;;;;5079986;28;20470;-60
2023/03/25 09:22:53;;;;;;;20.20;4.73;;;12.00;99.60;;;;;;5077046;28;20526;-61
2023/03/25 09:25:19;;;;;;;19.13;6.13;;;11.90;97.70;;;;;;5081632;28;21023;-61
2023/03/25 09:27:46;;;;;;;33.43;9.40;;;12.00;98.80;;;;;;5072113;28;20873;-61
2023/03/25 09:30:14;;;;;;;25.40;5.00;;;12.00;98.90;;;;;;5076222;28;21024;-61
2023/03/25 09:32:41;;;;;;;28.77;6.73;;;12.00;99.00;;;;;;5073209;28;20489;-61
2023/03/25 09:35:09;;;;;;;20.33;5.90;;;11.90;98.60;;;;;;5085536;28;20469;-61
2023/03/25 09:37:36;;;;;;;27.67;5.73;;;12.00;98.80;;;;;;5084031;28;20494;-60
2023/03/25 09:40:04;;;;;;;18.33;5.67;;;11.90;99.20;;;;;;5062440;28;20478;-61
2023/03/25 09:42:46;;;;;;;23.77;6.10;;;11.80;99.40;;;;;;5077383;28;20535;-60
2023/03/25 09:45:17;;;;;;;28.57;5.07;;;;;;;;;;5065834;28;20474;-60
2023/03/25 09:47:55;;;;;;;46.43;9.17;;;11.50;99.70;;;;;;5075821;28;21037;-61
2023/03/25 09:50:24;;;;;;;33.03;7.67;;;11.70;99.90;;;;;;5048238;28;20850;-60
2023/03/25 09:52:54;;;;;;;45.07;9.13;;;;;;;;;;5067777;28;20489;-60
2023/03/25 09:55:24;;;;;;;16.63;4.70;;;;;;;;;;5074469;28;20574;-60
2023/03/25 09:57:56;;;;;;;34.30;9.30;;;11.80;99.40;;;;;;5070812;28;20587;-60
2023/03/25 10:00:24;;;;;;;19.60;5.97;;;11.90;99.40;;;;;;5060183;28;20477;-61
2023/03/25 10:03:00;;;;;;;33.50;9.60;;;12.20;99.90;;;;;;5083746;28;20477;-60
2023/03/25 10:05:48;;;;;;;25.90;4.13;;;12.20;99.60;;;;;;5082368;28;20482;-60
2023/03/25 10:08:25;;;;;;;25.93;5.17;;;12.50;99.90;;;;;;5069750;28;20484;-60
2023/03/25 10:10:56;;;;;;;33.23;11.03;;;;;;;;;;5050935;28;20513;-61
2023/03/25 10:13:31;;;;;;;18.30;4.70;;;12.60;99.50;;;;;;5080207;28;20523;-60
2023/03/25 10:16:04;;;;;;;34.30;5.40;;;12.60;99.00;;;;;;5070655;28;20750;-60
2023/03/25 10:18:52;;;;;;;24.67;5.50;;;12.40;99.30;;;;;;5072327;28;20701;-61
2023/03/25 10:21:24;;;;;;;23.30;6.33;;;12.60;99.50;;;;;;5064741;28;20843;-61
2023/03/25 10:23:57;;;;;;;29.70;8.77;;;;;;;;;;5076520;28;20539;-61
2023/03/25 10:26:26;;;;;;;32.90;5.60;;;12.70;98.30;;;;;;5054150;28;20465;-60
2023/03/25 10:29:00;;;;;;;33.67;8.53;;;12.50;98.60;;;;;;5069551;28;20488;-60
2023/03/25 10:31:31;;;;;;;21.33;6.40;;;12.40;98.50;;;;;;5065561;28;20457;-61
2023/03/25 10:34:01;;;;;;;32.97;8.07;;;12.40;97.40;;;;;;5077171;28;20535;-60
2023/03/25 10:36:33;;;;;;;20.43;4.40;;;12.40;97.40;;;;;;5055661;28;20555;-61
2023/03/25 10:39:03;;;;;;;36.30;6.27;;;12.60;98.20;;;;;;5051535;28;20470;-60
2023/03/25 10:41:31;;;;;;;24.70;6.83;;;;;;;;;;5075831;28;20474;-61
2023/03/25 10:43:58;;;;;;;30.33;6.63;;;12.90;97.30;;;;;;5070454;28;20476;-60
2023/03/25 10:46:29;;;;;;;29.70;5.57;;;13.10;97.00;;;;;;5077490;28;20474;-61
2023/03/25 10:48:56;;;;;;;30.63;8.47;;;13.10;95.70;;;;;;5058466;28;21022;-61
2023/03/25 10:51:27;;;;;;;19.53;5.77;;;13.20;96.70;;;;;;5082183;28;20486;-61
2023/03/25 10:53:56;;;;;;;31.27;9.83;;;;;;;;;;5068508;28;20469;-61
2023/03/25 10:56:25;;;;;;;20.80;5.07;;;13.60;95.00;;;;;;5077590;28;20473;-61
2023/03/25 10:58:54;;;;;;;44.07;9.00;;;13.50;93.90;;;;;;5069914;28;20484;-61
2023/03/25 11:01:22;;;;;;;19.23;4.27;;;;;;;;;;5075464;28;20478;-61
2023/03/25 11:03:51;;;;;;;37.53;9.93;;;;;;;;;;5041967;28;20487;-60
2023/03/25 11:06:25;;;;;;;21.57;5.60;;;13.10;93.90;;;;;;5081072;27;20548;-61
2023/03/25 11:09:16;;;;;;;33.43;9.63;;;12.90;94.60;;;;;;5082971;28;20582;-60
2023/03/25 11:11:44;;;;;;;33.47;8.57;;;12.90;95.50;;;;;;5065606;28;20448;-61
2023/03/25 11:14:12;;;;;;;24.13;5.67;;;13.10;95.90;;;;;;5074175;28;20531;-61
2023/03/25 11:16:43;;;;;;;38.53;7.80;;;13.40;94.60;;;;;;5066058;28;20879;-61
2023/03/25 11:19:18;;;;;;;39.70;7.73;;;13.70;95.10;;;;;;5063574;28;20669;-62
2023/03/25 11:21:48;;;;;;;54.73;12.90;;;14.00;96.00;;;;;;5088916;28;20475;-60
2023/03/25 11:24:19;;;;;;;13.70;4.10;;;14.10;93.70;;;;;;5066791;28;20485;-61
2023/03/25 11:26:47;;;;;;;27.37;4.97;;;;;;;;;;5074853;28;20494;-61
2023/03/25 11:29:16;;;;;;;18.30;4.37;;;14.30;92.30;;;;;;5079199;28;20466;-61
2023/03/25 11:31:43;;;;;;;20.17;7.70;;;14.30;92.10;;;;;;5075397;28;20490;-61
2023/03/25 11:34:17;;;;;;;27.53;5.47;;;14.30;91.70;;;;;;5071947;28;21033;-61
2023/03/25 11:36:53;;;;;;;18.50;6.57;;;14.20;93.20;;;;;;5074811;27;20492;-61
2023/03/25 11:39:28;;;;;;;12.10;4.17;;;;;;;;;;5068700;28;20482;-61
2023/03/25 11:41:55;;;;;;;34.53;8.33;;;;;;;;;;5070157;28;20478;-61
2023/03/25 11:44:25;;;;;;;27.93;6.40;;;14.50;92.60;;;;;;5071417;28;20914;-60
2023/03/25 11:46:54;;;;;;;26.83;8.73;;;;;;;;;;5068176;28;20487;-61
2023/03/25 11:49:24;;;;;;;25.23;3.57;;;14.80;93.90;;;;;;5085624;28;20477;-61
2023/03/25 11:51:57;;;;;;;31.97;9.20;;;14.60;92.30;;;;;;5066539;28;20474;-62
2023/03/25 11:54:27;;;;;;;30.63;7.43;;;14.40;90.10;;;;;;5052703;28;20486;-61
2023/03/25 11:56:55;;;;;;;37.87;9.40;;;;;;;;;;5069607;28;20954;-61
2023/03/25 11:59:24;;;;;;;26.57;6.87;;;14.20;90.50;;;;;;5077931;28;20976;-61
2023/03/25 12:02:00;;;;;;;41.23;9.33;;;13.90;90.30;;;;;;5080376;28;20498;-61
2023/03/25 12:04:27;;;;;;;29.43;6.33;;;;;;;;;;5087008;28;20469;-61
2023/03/25 12:06:59;;;;;;;63.83;10.83;;;;;;;;;;5083177;28;20481;-61
2023/03/25 12:09:30;;;;;;;26.67;6.43;;;14.00;91.60;;;;;;5066945;28;20530;-61
2023/03/25 12:12:33;;;;;;;31.13;8.37;;;13.90;90.00;;;;;;5073422;28;21139;-61
2023/03/25 12:15:05;;;;;;;30.27;6.40;;;;;;;;;;5044137;28;20489;-61
2023/03/25 12:17:45;;;;;;;24.67;4.70;;;14.00;90.70;;;;;;5079390;28;20479;-61
2023/03/25 12:20:23;;;;;;;27.33;7.23;;;14.50;91.80;;;;;;5056239;28;20782;-61
2023/03/25 12:22:57;;;;;;;44.47;8.43;;;;;;;;;;5065858;28;20493;-61
2023/03/25 12:25:37;;;;;;;36.63;5.33;;;14.90;88.70;;;;;;5048493;28;20491;-62
2023/03/25 12:28:18;;;;;;;44.40;8.33;;;15.00;90.50;;;;;;5076251;28;20508;-61
2023/03/25 12:30:54;;;;;;;41.13;9.93;;;15.00;90.00;;;;;;5055823;28;20485;-61
2023/03/25 12:33:35;;;;;;;18.53;4.20;;;14.90;90.70;;;;;;5054156;28;21168;-61
2023/03/25 12:36:37;;;;;;;19.73;5.33;;;15.00;91.50;;;;;;5073483;28;20851;-61
2023/03/25 12:39:11;;;;;;;22.03;5.87;;;;;;;;;;5035890;28;20546;-62
2023/03/25 12:41:43;;;;;;;17.37;5.90;;;;;;;;;;5037716;28;20925;-61
2023/03/25 12:44:18;;;;;;;15.50;4.00;;;14.40;90.30;;;;;;5054281;28;20548;-61
2023/03/25 12:47:06;;;;;;;25.23;8.97;;;14.40;90.80;;;;;;5077574;28;20882;-62
2023/03/25 12:49:54;;;;;;;26.77;6.67;;;14.40;90.00;;;;;;5065882;28;20900;-61
2023/03/25 12:52:30;;;;;;;23.07;4.23;;;14.20;89.50;;;;;;5060938;28;20833;-61
2023/03/25 12:55:04;;;;;;;24.83;6.43;;;;;;;;;;5068758;28;20565;-60
2023/03/25 12:57:45;;;;;;;38.77;5.63;;;13.80;89.90;;;;;;5074774;28;20538;-62
2023/03/25 13:00:25;;;;;;;30.97;5.37;;;13.90;90.70;;;;;;5065461;28;20534;-61
2023/03/25 13:03:11;;;;;;;32.43;7.80;;;14.00;90.10;;;;;;5092043;28;20560;-61
2023/03/25 13:05:43;;;;;;;31.40;6.33;;;14.20;90.00;;;;;;5068253;28;20491;-61
2023/03/25 13:08:15;;;;;;;27.20;4.93;;;14.30;88.40;;;;;;5069068;28;20555;-62
2023/03/25 13:10:44;;;;;;;34.13;7.67;;;14.60;90.00;;;;;;5061382;28;20487;-62
2023/03/25 13:13:15;;;;;;;54.37;9.03;;;14.50;89.80;;;;;;5078205;27;20576;-61
2023/03/25 13:15:45;;;;;;;30.43;5.50;;;14.60;91.10;;;;;;5074973;28;20495;-61
2023/03/25 13:18:18;;;;;;;22.90;4.50;;;14.50;92.10;;;;;;5067694;28;20481;-61
2023/03/25 13:20:49;;;;;;;33.40;7.70;;;14.50;91.30;;;;;;5071919;28;20481;-62
2023/03/25 13:23:20;;;;;;;14.87;3.97;;;17.00;92.30;;;;;;5041042;28;20469;-61
2023/03/25 13:25:50;;;;;;;23.00;6.97;;;14.50;90.70;;;;;;5063686;28;20485;-62